createdAt,value
2018-12-30T00:01:01.046Z,19.12
2018-12-30T00:03:29.509Z,20.72
2018-12-30T00:05:58.667Z,15.65
2018-12-30T00:08:27.447Z,18.02
2018-12-30T00:10:56.135Z,14.38
2018-12-30T00:13:25.247Z,11.48
2018-12-30T00:15:54.035Z,12.63
2018-12-30T00:18:22.438Z,20.32
2018-12-30T00:20:50.839Z,14.78
2018-12-30T00:23:19.510Z,16.70
2018-12-30T00:25:47.921Z,9.93
2018-12-30T00:28:16.637Z,20.82
2018-12-30T00:30:45.037Z,11.80
2018-12-30T00:33:13.707Z,9.33
2018-12-30T00:35:42.117Z,18.17
2018-12-30T00:38:10.518Z,13.35
2018-12-30T00:40:39.259Z,9.83
2018-12-30T00:43:07.951Z,16.93
2018-12-30T00:45:36.417Z,17.73
2018-12-30T00:48:05.131Z,19.05
2018-12-30T00:50:34.027Z,11.68
2018-12-30T00:53:02.497Z,9.48
2018-12-30T00:55:30.898Z,20.10
2018-12-30T00:57:59.550Z,21.82
2018-12-30T01:00:27.940Z,16.57
2018-12-30T01:02:56.619Z,24.65
2018-12-30T01:05:25.290Z,18.77
2018-12-30T01:07:53.990Z,15.40
2018-12-30T01:10:22.391Z,16.95
2018-12-30T01:12:50.872Z,20.02
2018-12-30T01:15:19.253Z,22.25
2018-12-30T01:17:47.653Z,16.12
2018-12-30T01:20:16.335Z,18.12
2018-12-30T01:22:45.186Z,15.85
2018-12-30T01:25:13.877Z,15.58
2018-12-30T01:27:42.273Z,18.92
2018-12-30T01:30:10.675Z,21.12
2018-12-30T01:32:39.083Z,18.15
2018-12-30T01:35:07.481Z,19.60
2018-12-30T01:37:36.176Z,25.05
2018-12-30T01:40:05.586Z,19.57
2018-12-30T01:42:34.264Z,32.50
2018-12-30T01:45:02.658Z,22.25
2018-12-30T01:47:31.072Z,33.70
2018-12-30T01:49:59.533Z,19.10
2018-12-30T01:52:28.203Z,23.42
2018-12-30T01:54:56.987Z,20.95
2018-12-30T01:57:25.665Z,14.78
2018-12-30T01:59:54.761Z,19.52
2018-12-30T02:02:23.161Z,31.73
2018-12-30T02:04:51.558Z,17.50
2018-12-30T02:07:20.215Z,24.45
2018-12-30T02:09:48.610Z,32.25
2018-12-30T02:12:17.285Z,19.62
2018-12-30T02:14:45.968Z,16.93
2018-12-30T02:17:14.661Z,19.70
2018-12-30T02:19:43.142Z,23.40
2018-12-30T02:22:11.526Z,24.80
2018-12-30T02:24:39.926Z,26.65
2018-12-30T02:27:08.575Z,24.05
2018-12-30T02:29:37.262Z,18.90
2018-12-30T02:32:05.660Z,19.60
2018-12-30T02:34:34.327Z,18.92
2018-12-30T02:37:02.722Z,24.32
2018-12-30T02:39:31.145Z,22.20
2018-12-30T02:41:59.559Z,22.13
2018-12-30T02:44:28.260Z,28.32
2018-12-30T02:46:56.940Z,12.50
2018-12-30T02:49:25.350Z,16.42
2018-12-30T02:51:53.744Z,25.72
2018-12-30T02:54:22.159Z,25.00
2018-12-30T02:56:50.872Z,24.72
2018-12-30T02:59:19.555Z,27.37
2018-12-30T03:01:47.952Z,24.60
2018-12-30T03:04:16.648Z,17.07
2018-12-30T03:06:45.038Z,17.12
2018-12-30T03:09:13.434Z,13.83
2018-12-30T03:11:41.829Z,21.55
2018-12-30T03:14:10.546Z,26.57
2018-12-30T03:16:38.949Z,18.17
2018-12-30T03:19:07.344Z,36.10
2018-12-30T03:21:35.989Z,21.75
2018-12-30T03:24:04.691Z,25.27
2018-12-30T03:26:33.084Z,20.30
2018-12-30T03:29:01.874Z,29.65
2018-12-30T03:31:30.630Z,17.48
2018-12-30T03:33:59.043Z,20.88
2018-12-30T03:36:27.440Z,16.25
2018-12-30T03:38:55.844Z,32.70
2018-12-30T03:41:24.571Z,25.27
2018-12-30T03:43:53.049Z,16.32
2018-12-30T03:46:21.725Z,21.15
2018-12-30T03:48:50.458Z,21.55
2018-12-30T03:51:18.854Z,24.50
2018-12-30T03:53:47.497Z,23.32
2018-12-30T03:56:16.170Z,18.27
2018-12-30T03:58:44.563Z,18.23
2018-12-30T04:01:12.972Z,16.57
2018-12-30T04:03:41.372Z,18.07
2018-12-30T04:06:09.782Z,14.53
2018-12-30T04:08:38.494Z,19.37
2018-12-30T04:11:06.902Z,20.57
2018-12-30T04:13:35.637Z,16.25
2018-12-30T04:16:04.336Z,21.00
2018-12-30T04:18:33.016Z,20.90
2018-12-30T04:21:01.704Z,27.90
2018-12-30T04:23:30.386Z,19.98
2018-12-30T04:25:59.074Z,16.80
2018-12-30T04:28:27.476Z,17.60
2018-12-30T04:30:55.877Z,23.60
2018-12-30T04:33:24.542Z,23.85
2018-12-30T04:35:53.206Z,18.27
2018-12-30T04:38:21.611Z,25.57
2018-12-30T04:40:50.023Z,16.80
2018-12-30T04:43:19.653Z,32.00
2018-12-30T04:45:48.311Z,14.85
2018-12-30T04:48:16.939Z,22.52
2018-12-30T04:50:45.346Z,26.42
2018-12-30T04:53:13.786Z,17.27
2018-12-30T04:55:42.189Z,13.08
2018-12-30T04:58:10.872Z,20.12
2018-12-30T05:00:39.274Z,25.00
2018-12-30T05:03:07.674Z,31.37
2018-12-30T05:05:36.424Z,19.80
2018-12-30T05:08:05.111Z,19.55
2018-12-30T05:10:33.567Z,21.27
2018-12-30T05:13:01.969Z,18.35
2018-12-30T05:15:30.658Z,19.07
2018-12-30T05:17:59.344Z,16.40
2018-12-30T05:20:28.032Z,35.55
2018-12-30T05:22:56.452Z,17.70
2018-12-30T05:25:24.849Z,25.48
2018-12-30T05:27:53.578Z,14.33
2018-12-30T05:30:21.965Z,20.08
2018-12-30T05:32:50.639Z,14.30
2018-12-30T05:35:19.033Z,16.77
2018-12-30T05:37:47.712Z,17.87
2018-12-30T05:40:16.395Z,22.17
2018-12-30T05:42:44.791Z,26.15
2018-12-30T05:45:13.187Z,21.70
2018-12-30T05:47:41.939Z,28.65
2018-12-30T05:50:10.832Z,25.30
2018-12-30T05:52:42.066Z,19.70
2018-12-30T05:55:09.378Z,20.77
2018-12-30T05:57:37.786Z,26.60
2018-12-30T06:00:08.120Z,17.32
2018-12-30T06:02:36.827Z,17.90
2018-12-30T06:05:05.519Z,18.48
2018-12-30T06:07:34.198Z,21.77
2018-12-30T06:10:02.605Z,19.35
2018-12-30T06:12:31.257Z,22.42
2018-12-30T06:14:59.658Z,11.50
2018-12-30T06:17:28.330Z,19.73
2018-12-30T06:19:56.804Z,21.45
2018-12-30T06:22:25.222Z,14.13
2018-12-30T06:24:53.878Z,12.45
2018-12-30T06:27:22.291Z,12.73
2018-12-30T06:29:50.695Z,20.77
2018-12-30T06:32:19.422Z,22.15
2018-12-30T06:34:47.827Z,26.17
2018-12-30T06:37:16.487Z,24.15
2018-12-30T06:39:44.891Z,21.37
2018-12-30T06:42:13.302Z,25.15
2018-12-30T06:44:41.710Z,19.27
2018-12-30T06:47:10.410Z,22.60
2018-12-30T06:49:39.049Z,24.52
2018-12-30T06:52:07.787Z,18.55
2018-12-30T06:54:36.197Z,28.38
2018-12-30T06:57:04.860Z,19.60
2018-12-30T06:59:33.536Z,24.05
2018-12-30T07:02:02.164Z,25.08
2018-12-30T07:04:30.567Z,26.95
2018-12-30T07:06:59.208Z,27.27
2018-12-30T07:09:27.617Z,21.62
2018-12-30T07:11:56.005Z,25.15
2018-12-30T07:14:24.402Z,15.53
2018-12-30T07:16:52.794Z,19.45
2018-12-30T07:19:21.207Z,25.88
2018-12-30T07:21:49.878Z,21.37
2018-12-30T07:24:18.284Z,25.32
2018-12-30T07:26:46.946Z,26.30
2018-12-30T07:29:15.361Z,28.57
2018-12-30T07:31:43.758Z,27.25
2018-12-30T07:34:12.184Z,35.45
2018-12-30T07:36:40.823Z,27.15
2018-12-30T07:39:09.226Z,25.27
2018-12-30T07:41:37.626Z,25.45
2018-12-30T07:44:06.024Z,31.65
2018-12-30T07:46:34.422Z,31.77
2018-12-30T07:49:02.826Z,26.68
2018-12-30T07:51:31.559Z,30.60
2018-12-30T07:54:00.237Z,33.02
2018-12-30T07:56:29.426Z,23.27
2018-12-30T07:58:57.838Z,27.55
2018-12-30T08:01:26.238Z,25.75
2018-12-30T08:03:54.665Z,29.60
2018-12-30T08:06:23.063Z,28.70
2018-12-30T08:08:51.473Z,28.40
2018-12-30T08:11:20.136Z,27.10
2018-12-30T08:13:48.550Z,24.70
2018-12-30T08:16:16.946Z,29.80
2018-12-30T08:18:45.679Z,35.35
2018-12-30T08:21:14.065Z,36.50
2018-12-30T08:23:42.473Z,25.82
2018-12-30T08:26:10.879Z,29.27
2018-12-30T08:28:39.288Z,28.70
2018-12-30T08:31:07.747Z,24.63
2018-12-30T08:33:36.151Z,29.63
2018-12-30T08:36:04.847Z,26.73
2018-12-30T08:38:33.238Z,30.52
2018-12-30T08:41:02.539Z,24.15
2018-12-30T08:43:30.934Z,28.67
2018-12-30T08:45:59.334Z,23.75
2018-12-30T08:48:28.067Z,31.42
2018-12-30T08:50:56.478Z,26.40
2018-12-30T08:53:29.309Z,22.95
2018-12-30T08:55:55.267Z,22.50
2018-12-30T08:58:23.745Z,25.17
2018-12-30T09:00:52.151Z,24.87
2018-12-30T09:03:20.533Z,24.85
2018-12-30T09:05:48.938Z,26.90
2018-12-30T09:08:17.334Z,26.82
2018-12-30T09:10:46.145Z,25.27
2018-12-30T09:13:14.864Z,24.63
2018-12-30T09:15:43.270Z,30.65
2018-12-30T09:18:11.661Z,24.00
2018-12-30T09:20:40.379Z,27.95
2018-12-30T09:23:08.781Z,25.62
2018-12-30T09:25:37.439Z,13.75
2018-12-30T09:28:05.838Z,26.48
2018-12-30T09:30:34.237Z,18.35
2018-12-30T09:33:02.645Z,25.15
2018-12-30T09:35:31.041Z,18.95
2018-12-30T09:37:59.447Z,19.15
2018-12-30T09:40:28.123Z,17.10
2018-12-30T09:42:56.825Z,17.65
2018-12-30T09:45:25.235Z,17.73
2018-12-30T09:47:53.650Z,20.95
2018-12-30T09:50:22.367Z,22.25
2018-12-30T09:52:50.767Z,15.85
2018-12-30T09:55:19.157Z,14.63
2018-12-30T09:57:47.557Z,10.45
2018-12-30T10:00:15.949Z,15.20
2018-12-30T10:02:44.363Z,17.40
2018-12-30T10:05:12.753Z,33.67
2018-12-30T10:07:41.170Z,19.67
2018-12-30T10:10:09.913Z,19.60
2018-12-30T10:12:38.327Z,18.80
2018-12-30T10:15:10.026Z,25.17
2018-12-30T10:17:37.304Z,16.57
2018-12-30T10:20:07.554Z,16.12
2018-12-30T10:22:35.953Z,23.40
2018-12-30T10:25:04.895Z,17.95
2018-12-30T10:27:33.305Z,19.45
2018-12-30T10:30:01.959Z,9.70
2018-12-30T10:32:30.361Z,14.25
2018-12-30T10:34:58.766Z,17.30
2018-12-30T10:37:27.507Z,18.02
2018-12-30T10:39:56.186Z,15.88
2018-12-30T10:42:24.888Z,19.32
2018-12-30T10:44:53.569Z,20.23
2018-12-30T10:47:21.974Z,14.80
2018-12-30T10:49:50.635Z,22.37
2018-12-30T10:52:19.319Z,18.90
2018-12-30T10:54:47.728Z,22.73
2018-12-30T10:57:16.136Z,11.93
2018-12-30T10:59:44.542Z,14.50
2018-12-30T11:02:12.950Z,15.32
2018-12-30T11:04:41.350Z,10.23
2018-12-30T11:07:09.843Z,14.15
2018-12-30T11:09:38.587Z,17.02
2018-12-30T11:12:07.044Z,15.15
2018-12-30T11:14:35.435Z,14.55
2018-12-30T11:17:04.140Z,14.38
2018-12-30T11:19:32.931Z,11.95
2018-12-30T11:22:01.607Z,20.97
2018-12-30T11:24:30.009Z,18.25
2018-12-30T11:26:58.680Z,13.65
2018-12-30T11:29:27.086Z,15.95
2018-12-30T11:31:55.723Z,19.45
2018-12-30T11:34:24.138Z,23.42
2018-12-30T11:36:52.538Z,20.30
2018-12-30T11:39:21.287Z,18.77
2018-12-30T11:41:49.997Z,23.27
2018-12-30T11:44:18.780Z,18.77
2018-12-30T11:46:47.247Z,11.18
2018-12-30T11:49:16.058Z,13.18
2018-12-30T11:51:44.455Z,19.37
2018-12-30T11:54:16.621Z,14.98
2018-12-30T11:56:42.981Z,19.37
2018-12-30T11:59:11.386Z,15.30
2018-12-30T12:01:40.075Z,19.65
2018-12-30T12:04:08.482Z,18.02
2018-12-30T12:06:36.883Z,17.27
2018-12-30T12:09:06.961Z,11.68
2018-12-30T12:11:35.757Z,11.12
2018-12-30T12:14:04.167Z,16.73
2018-12-30T12:16:32.570Z,10.95
2018-12-30T12:19:00.978Z,14.10
2018-12-30T12:21:29.379Z,14.50
2018-12-30T12:23:57.781Z,19.48
2018-12-30T12:26:26.427Z,18.40
2018-12-30T12:28:54.830Z,13.62
2018-12-30T12:31:23.239Z,22.52
2018-12-30T12:33:51.641Z,21.60
2018-12-30T12:36:20.051Z,15.58
2018-12-30T12:38:48.459Z,23.05
2018-12-30T12:41:16.862Z,19.20
2018-12-30T12:43:45.262Z,16.17
2018-12-30T12:46:13.715Z,21.07
2018-12-30T12:48:42.114Z,15.23
2018-12-30T12:51:10.514Z,13.68
2018-12-30T12:53:39.319Z,14.78
2018-12-30T12:56:08.033Z,21.00
2018-12-30T12:58:36.806Z,14.93
2018-12-30T13:01:05.195Z,13.78
2018-12-30T13:03:33.593Z,21.55
2018-12-30T13:06:02.002Z,26.37
2018-12-30T13:08:30.725Z,17.57
2018-12-30T13:10:59.529Z,20.88
2018-12-30T13:13:28.264Z,23.65
2018-12-30T13:16:03.347Z,14.98
2018-12-30T13:18:27.097Z,20.75
2018-12-30T13:20:55.505Z,21.02
2018-12-30T13:23:24.170Z,17.67
2018-12-30T13:25:52.574Z,13.05
2018-12-30T13:28:20.987Z,23.83
2018-12-30T13:30:49.389Z,22.15
2018-12-30T13:33:17.805Z,18.15
2018-12-30T13:35:46.274Z,27.85
2018-12-30T13:38:14.690Z,16.42
2018-12-30T13:40:43.094Z,16.62
2018-12-30T13:43:11.499Z,19.70
2018-12-30T13:45:40.304Z,17.92
2018-12-30T13:48:08.794Z,22.10
2018-12-30T13:50:37.471Z,21.17
2018-12-30T13:53:05.871Z,22.82
2018-12-30T13:55:34.531Z,19.98
2018-12-30T13:58:02.993Z,20.08
2018-12-30T14:00:31.397Z,23.52
2018-12-30T14:03:00.083Z,28.42
2018-12-30T14:05:28.770Z,17.32
2018-12-30T14:07:57.455Z,21.65
2018-12-30T14:10:25.864Z,18.45
2018-12-30T14:12:54.522Z,30.75
2018-12-30T14:15:22.941Z,14.85
2018-12-30T14:17:51.340Z,27.48
2018-12-30T14:20:19.810Z,19.55
2018-12-30T14:22:48.618Z,21.95
2018-12-30T14:25:17.339Z,21.30
2018-12-30T14:27:46.022Z,17.62
2018-12-30T14:30:14.710Z,20.25
2018-12-30T14:32:43.395Z,24.32
2018-12-30T14:35:11.789Z,21.57
2018-12-30T14:37:40.515Z,21.33
2018-12-30T14:40:09.027Z,20.88
2018-12-30T14:42:37.754Z,31.85
2018-12-30T14:45:07.868Z,54.00
2018-12-30T14:47:36.342Z,28.50
2018-12-30T14:50:07.800Z,25.25
2018-12-30T14:52:36.570Z,25.23
2018-12-30T14:55:05.422Z,21.42
2018-12-30T14:57:33.841Z,24.12
2018-12-30T15:00:02.247Z,23.35
2018-12-30T15:02:30.723Z,15.20
2018-12-30T15:04:59.164Z,18.00
2018-12-30T15:07:27.574Z,22.67
2018-12-30T15:09:55.980Z,22.15
2018-12-30T15:12:24.387Z,19.57
2018-12-30T15:14:52.874Z,19.15
2018-12-30T15:17:21.277Z,18.87
2018-12-30T15:19:50.074Z,15.95
2018-12-30T15:22:18.607Z,13.38
2018-12-30T15:24:47.357Z,17.85
2018-12-30T15:27:15.759Z,15.38
2018-12-30T15:29:44.416Z,14.55
2018-12-30T15:32:12.831Z,18.42
2018-12-30T15:34:41.226Z,15.53
2018-12-30T15:37:09.639Z,18.50
2018-12-30T15:39:38.334Z,17.80
2018-12-30T15:42:07.025Z,23.47
2018-12-30T15:44:35.429Z,20.62
2018-12-30T15:47:04.097Z,15.38
2018-12-30T15:49:32.781Z,17.15
2018-12-30T15:52:01.544Z,19.15
2018-12-30T15:54:30.299Z,21.55
2018-12-30T15:56:58.935Z,23.67
2018-12-30T15:59:27.343Z,19.00
2018-12-30T16:01:56.004Z,21.00
2018-12-30T16:04:24.410Z,28.87
2018-12-30T16:06:52.815Z,19.10
2018-12-30T16:09:21.208Z,20.08
2018-12-30T16:11:49.616Z,18.07
2018-12-30T16:14:18.024Z,61.75
2018-12-30T16:16:46.430Z,69.05
2018-12-30T16:19:14.839Z,22.70
2018-12-30T16:21:43.560Z,12.98
2018-12-30T16:24:12.207Z,16.48
2018-12-30T16:26:40.618Z,21.68
2018-12-30T16:29:09.309Z,18.42
2018-12-30T16:31:38.047Z,17.92
2018-12-30T16:34:06.460Z,22.87
2018-12-30T16:36:34.860Z,26.02
2018-12-30T16:39:03.833Z,23.60
2018-12-30T16:41:32.239Z,20.90
2018-12-30T16:44:00.646Z,19.40
2018-12-30T16:46:29.037Z,21.20
2018-12-30T16:48:57.444Z,17.65
2018-12-30T16:51:25.837Z,23.73
2018-12-30T16:53:54.354Z,23.70
2018-12-30T16:56:23.016Z,21.77
2018-12-30T16:58:51.426Z,23.80
2018-12-30T17:01:19.828Z,23.38
2018-12-30T17:03:48.243Z,25.97
2018-12-30T17:06:16.725Z,24.43
2018-12-30T17:08:45.147Z,31.23
2018-12-30T17:11:13.794Z,36.80
2018-12-30T17:13:42.206Z,24.37
2018-12-30T17:16:10.867Z,26.05
2018-12-30T17:18:39.551Z,31.30
2018-12-30T17:21:08.026Z,35.60
2018-12-30T17:23:36.413Z,42.10
2018-12-30T17:26:04.831Z,46.98
2018-12-30T17:28:33.230Z,40.25
2018-12-30T17:31:01.967Z,42.95
2018-12-30T17:33:30.365Z,39.18
2018-12-30T17:35:58.774Z,45.25
2018-12-30T17:38:27.503Z,45.30
2018-12-30T17:41:01.502Z,41.48
2018-12-30T17:43:26.519Z,41.85
2018-12-30T17:45:54.922Z,44.48
2018-12-30T17:48:23.596Z,41.00
2018-12-30T17:50:51.997Z,48.30
2018-12-30T17:53:20.441Z,39.65
2018-12-30T17:55:50.906Z,46.10
2018-12-30T17:58:19.252Z,48.02
2018-12-30T18:00:47.903Z,46.28
2018-12-30T18:03:16.619Z,47.62
2018-12-30T18:05:45.029Z,53.45
2018-12-30T18:08:13.422Z,88.78
2018-12-30T18:10:42.171Z,62.55
2018-12-30T18:13:10.857Z,68.85
2018-12-30T18:15:39.342Z,56.55
2018-12-30T18:18:08.026Z,58.38
2018-12-30T18:20:36.447Z,65.95
2018-12-30T18:23:04.852Z,67.65
2018-12-30T18:25:33.259Z,68.20
2018-12-30T18:28:01.653Z,74.42
2018-12-30T18:30:30.067Z,83.87
2018-12-30T18:32:58.469Z,83.45
2018-12-30T18:35:26.898Z,80.55
2018-12-30T18:37:55.306Z,91.70
2018-12-30T18:40:31.675Z,99.00
2018-12-30T18:43:00.426Z,92.25
2018-12-30T18:45:29.125Z,78.15
2018-12-30T18:47:57.795Z,93.92
2018-12-30T18:50:26.258Z,142.37
2018-12-30T18:52:54.665Z,85.30
2018-12-30T18:55:23.375Z,74.70
2018-12-30T18:57:51.890Z,61.98
2018-12-30T19:00:20.510Z,72.45
2018-12-30T19:02:48.914Z,66.33
2018-12-30T19:05:17.327Z,28.27
2018-12-30T19:07:45.820Z,22.10
2018-12-30T19:10:14.547Z,25.32
2018-12-30T19:12:43.230Z,39.45
2018-12-30T19:15:11.634Z,36.20
2018-12-30T19:17:40.119Z,63.42
2018-12-30T19:20:08.513Z,36.05
2018-12-30T19:22:37.253Z,35.28
2018-12-30T19:25:06.031Z,40.38
2018-12-30T19:27:34.727Z,39.73
2018-12-30T19:30:03.289Z,48.48
2018-12-30T19:32:31.995Z,49.53
2018-12-30T19:35:00.399Z,42.03
2018-12-30T19:37:29.070Z,40.95
2018-12-30T19:39:57.473Z,44.53
2018-12-30T19:42:26.121Z,53.73
2018-12-30T19:44:54.820Z,51.23
2018-12-30T19:47:23.239Z,50.30
2018-12-30T19:49:51.881Z,51.42
2018-12-30T19:52:20.564Z,52.98
2018-12-30T19:54:49.079Z,49.42
2018-12-30T19:57:17.734Z,44.88
2018-12-30T19:59:46.144Z,56.37
2018-12-30T20:02:14.561Z,43.85
2018-12-30T20:04:43.292Z,47.15
2018-12-30T20:07:11.699Z,45.10
2018-12-30T20:09:40.357Z,47.25
2018-12-30T20:12:09.035Z,45.35
2018-12-30T20:14:37.723Z,45.33
2018-12-30T20:17:06.126Z,45.63
2018-12-30T20:19:34.798Z,42.27
2018-12-30T20:22:03.190Z,39.80
2018-12-30T20:24:31.597Z,37.48
2018-12-30T20:26:59.999Z,44.25
2018-12-30T20:29:28.454Z,38.92
2018-12-30T20:31:57.090Z,39.55
2018-12-30T20:34:26.727Z,38.08
2018-12-30T20:36:55.273Z,39.45
2018-12-30T20:39:23.971Z,37.95
2018-12-30T20:41:52.373Z,29.50
2018-12-30T20:44:20.782Z,29.57
2018-12-30T20:46:49.182Z,27.73
2018-12-30T20:49:17.897Z,29.35
2018-12-30T20:51:46.315Z,33.25
2018-12-30T20:54:14.731Z,27.85
2018-12-30T20:56:43.141Z,27.50
2018-12-30T20:59:11.827Z,25.37
2018-12-30T21:01:40.234Z,27.75
2018-12-30T21:04:08.890Z,29.90
2018-12-30T21:06:37.295Z,27.40
2018-12-30T21:09:06.333Z,32.60
2018-12-30T21:11:34.744Z,26.17
2018-12-30T21:14:03.439Z,25.68
2018-12-30T21:16:31.830Z,29.40
2018-12-30T21:19:00.237Z,25.05
2018-12-30T21:21:28.979Z,31.50
2018-12-30T21:23:57.394Z,28.30
2018-12-30T21:26:26.038Z,26.65
2018-12-30T21:28:54.457Z,27.87
2018-12-30T21:31:22.850Z,24.00
2018-12-30T21:33:51.399Z,28.32
2018-12-30T21:36:19.837Z,30.77
2018-12-30T21:38:48.558Z,28.23
2018-12-30T21:41:16.982Z,28.38
2018-12-30T21:43:45.374Z,29.07
2018-12-30T21:46:13.783Z,34.03
2018-12-30T21:48:42.301Z,32.03
2018-12-30T21:51:10.718Z,37.08
2018-12-30T21:53:39.451Z,33.10
2018-12-30T21:56:07.864Z,32.88
2018-12-30T21:58:36.511Z,35.50
2018-12-30T22:01:04.916Z,34.95
2018-12-30T22:03:33.328Z,44.20
2018-12-30T22:06:01.739Z,31.10
2018-12-30T22:08:30.158Z,31.82
2018-12-30T22:10:58.819Z,50.73
2018-12-30T22:13:27.504Z,36.15
2018-12-30T22:15:56.280Z,55.75
2018-12-30T22:18:24.989Z,56.63
2018-12-30T22:20:53.407Z,48.35
2018-12-30T22:23:21.890Z,66.65
2018-12-30T22:25:50.307Z,53.40
2018-12-30T22:28:19.001Z,44.63
2018-12-30T22:30:47.410Z,35.55
2018-12-30T22:33:15.816Z,43.02
2018-12-30T22:35:44.555Z,51.45
2018-12-30T22:38:12.960Z,39.63
2018-12-30T22:40:41.374Z,43.25
2018-12-30T22:43:10.103Z,35.10
2018-12-30T22:45:38.514Z,34.58
2018-12-30T22:48:06.918Z,34.15
2018-12-30T22:50:35.321Z,28.42
2018-12-30T22:53:03.736Z,33.55
2018-12-30T22:55:32.150Z,38.30
2018-12-30T22:58:00.909Z,31.25
2018-12-30T23:00:34.487Z,41.05
2018-12-30T23:03:02.963Z,35.92
2018-12-30T23:05:31.491Z,31.40
2018-12-30T23:07:59.889Z,35.05
2018-12-30T23:10:28.624Z,40.98
2018-12-30T23:12:59.762Z,35.68
2018-12-30T23:15:28.163Z,35.78
2018-12-30T23:17:56.831Z,37.70
2018-12-30T23:20:25.518Z,38.58
2018-12-30T23:22:54.011Z,35.35
2018-12-30T23:25:22.646Z,43.02
2018-12-30T23:27:51.058Z,33.60
2018-12-30T23:30:19.752Z,31.07
2018-12-30T23:32:48.168Z,44.03
2018-12-30T23:35:16.818Z,35.45
2018-12-30T23:37:45.510Z,29.25
2018-12-30T23:40:14.192Z,35.95
2018-12-30T23:42:42.603Z,32.20
2018-12-30T23:45:11.262Z,38.90
2018-12-30T23:47:39.943Z,37.23
2018-12-30T23:50:08.629Z,40.07
2018-12-30T23:52:37.044Z,35.73
2018-12-30T23:55:05.886Z,34.05
2018-12-30T23:57:34.298Z,27.27
